Vårt webkamera more information My webcam


webkamera på Randaberg more information webcam on Randaberg


Nedbørsradar  rain snow radar


Besøk vår andre værside:

Alternativ webside

Alternativ mobil

Regnskvett RandabergWebsite of another weatherstation



Ikke nødvendig med spesiell oppmerksomhet.    Det er ingen advarsler

Nære METAR rapporter

   
ENHD - Haugesund
oppdatert: 20-09-2019 18:20
For det meste skyet  
For det meste skyet  
   Vind: NNV 3.6 m/s
Vind: NNV 3.6 m/s
Temperatur: 13°C
Duggpunkt: 9°C
Fuktighet: 77%
Barometer: 1024 hPa
Skyer: For det meste skyet
Sikt: More than 10 km
Skydetaljer: For det meste skyet 701 m
ENHD 201620Z 33007KT 9999 BKN023 13/09 Q1024
ENZV - Randaberg
oppdatert: 20-09-2019 18:20
For det meste skyet  
For det meste skyet  
   Vind: NNV 4.6 m/s
Vind: NNV 4.6 m/s
Temperatur: 13°C
Duggpunkt: 10°C
Fuktighet: 82%
Barometer: 1025 hPa
Skyer: For det meste skyet
Sikt: More than 10 km
Skydetaljer: For det meste skyet 609.6 m
ENZV 201620Z 33009KT 9999 BKN020 13/10 Q1025 NOSIG
ENBR - Bergen
oppdatert: 20-09-2019 18:20
For det meste skyet  
For det meste skyet  
   Vind: varierer 1 m/s
Vind: varierer 1 m/s
Temperatur: 12°C
Duggpunkt: 9°C
Fuktighet: 82%
Barometer: 1024 hPa
Skyer: For det meste skyet
Sikt: More than 10 km
Skydetaljer: få skyer 243.8 m,
Delvis Skyet 487.7 m,
For det meste skyet 792.5 m
ENBR 201620Z VRB02KT 9999 FEW008 SCT016 BKN026 12/09 Q1024 NOSIG RMK WIND 1200FT 26004KT
ENCN - Kristiansand
oppdatert: 20-09-2019 18:20
Klart  
Klart  
   Vind: VNV 4.6 m/s
Vind: VNV 4.6 m/s
Temperatur: 17°C
Duggpunkt: 9°C
Fuktighet: 59%
Barometer: 1020 hPa
Sikt: More than 10 km
Skydetaljer: Klart
ENCN 201620Z 29009KT 230V360 CAVOK 17/09 Q1020
ENGM - Oslo
oppdatert: 20-09-2019 18:20
Klart  
Klart  
   Vind: VNV 2.6 m/s
Vind: VNV 2.6 m/s
Temperatur: 19°C
Duggpunkt: 5°C
Fuktighet: 40%
Barometer: 1015 hPa
Sikt: More than 10 km
Skydetaljer: Klart
ENGM 201620Z 30005KT 240V340 CAVOK 19/05 Q1015 NOSIG
ENVA - Trondheim
oppdatert: 20-09-2019 18:20
Light Showers, Regn, For det meste skyet  
Light Showers, Regn, For det meste skyet  
   Vind: VEST 10.3 m/s
Vind: VEST 10.3 m/s
Temperatur: 12°C
Duggpunkt: 8°C
Fuktighet: 77%
Barometer: 1014 hPa
Skyer: For det meste skyet
Sikt: More than 10 km
Skydetaljer: Delvis Skyet 792.5 m,
For det meste skyet 1036.3 m
ENVA 201620Z 27020KT 9999 -SHRA SCT026 BKN034 12/08 Q1014 NOSIG RMK WIND 670FT 28023G36KT

Script utviklet av  Saratoga-weather.org Tilrettelagt for malen av  Weerstation Leuven

Du finner vår vær info også på:

European Weather Network

WeatherCloud

Weather Underground

Citizen Weather Observer Program (CWOP)

Utstyr vi bruker:

Værstsjon
Oregon scientific WMR 300

Værprogram
Meteobridge

Oregon scientific WMR 300

Meteobridge